Aérodrome :
LOGIN :

S'inscrire | Disclaimer

   EN    FR    IT 

 










Légende :    VFR   VFR Marginal   IFR   IFR Intensif   IFR Très Intensif
Visi : 
Plafond : 
>= 8 km
>= 3000ft
5 à 8 km
1000 à 3000 ft
1500m à 5 km
500 à 1000 ft
800 à 1500m
200 à 500 ft
< 800m
< 200 ft
Symboles :   Orages  Brouillard  Fortes neiges  Fortes précipitations  Vent > 20 kt
SIGMETs :   Divers  Orages  Givrage  Turbulence  Onde Orograph.  Cendres Volcan.







- Altitude de l'aérodrome : 299 ft
- Code IATA : EDM
- Voir les cartes d'approche


LFRI - La Roche Sur Yon - Les Ajoncs

DERNIER METAR :
  • 221700Z AUTO 26007KT 9999 -DZ FEW020/// BKN054/// BKN074/// ///TCU 06/05 Q1005 TEMPO 4000 SHRA

METARs EXPIRÉS :
  • 221630Z AUTO 25004KT 9999 BKN024/// BKN031/// BKN050/// ///TCU 06/05 Q1005 TEMPO 4000 SHRA
  • 221600Z AUTO 28006KT 230V300 9999 -RA BKN028/// OVC037/// ///CB 07/04 Q1006 TEMPO 4000 SHRA
  • 221530Z AUTO 26006KT 230V290 9999 FEW032 SCT040 OVC050 08/03 Q1006 TEMPO 4000 SHRA SCT015 SCT026TCU
  • 221500Z AUTO 29008KT 9999 BKN035 BKN044 OVC130 08/03 Q1006 TEMPO 4000 SHRA SCT015 SCT026TCU
  • 221430Z AUTO 30011KT 9999 FEW035 OVC130 08/02 Q1006 TEMPO 4000 SHRA SCT015 SCT026TCU

TAF TAF LFRI
Valide du 22 à 12h jusqu'au 23 à 12h UTC


221100Z 2212/2312 28008KT 9999 SCT030
PROB30
TEMPO 2215/2312 4000 SHRA SCT015 SCT026TCU
Pas de NOTAMs connus pour ce terrain.



MET'MAP, la Météo Aéronautique d'un coup d'oeil ! - Copyright ORBIFLY Décembre 2007 - Disclaimer

ORBIFLY MET'MAP TEAM :

Programmation & Développement : Alexandra Zaïnal
Conception & Développement : Baudouin d'Aumeries
Co-Programmation & Développement : Marc-Olivier Méhu
Soutien technique & logistique : Manuel Goepfert

Contact : metmap@orbifly.com




SOURCES & CREDITS :

   NOAA